Time,TemperatureF,DewpointF,PressureIn,WindDirection,WindDirectionDegrees,WindSpeedMPH,WindSpeedGustMPH,Humidity,HourlyPrecipIn,Conditions,Clouds,dailyrainin,SoftwareType,DateUTC
2013-06-05 00:02:00,59.7,53.2,30.05,WNW,285,0.0,4.0,79,0.00,,,0.00,WUHU216DAVISVP2,2013-06-05 05:02:00,
2013-06-05 00:07:00,59.8,52.0,30.05,WNW,288,1.0,4.0,75,0.00,,,0.00,WUHU216DAVISVP2,2013-06-05 05:07:00,
2013-06-05 00:12:00,59.7,51.8,30.05,WNW,290,1.0,4.0,75,0.00,,,0.00,WUHU216DAVISVP2,2013-06-05 05:12:00,
2013-06-05 00:17:00,59.6,51.3,30.06,NW,310,1.0,4.0,74,0.00,,,0.00,WUHU216DAVISVP2,2013-06-05 05:17:00,
2013-06-05 00:22:00,59.5,51.3,30.06,West,264,2.0,3.0,74,0.00,,,0.00,WUHU216DAVISVP2,2013-06-05 05:22:00,
2013-06-05 00:27:00,59.4,51.2,30.05,WNW,298,1.0,6.0,74,0.00,,,0.00,WUHU216DAVISVP2,2013-06-05 05:27:00,
2013-06-05 00:32:00,59.2,51.0,30.05,West,275,1.0,6.0,74,0.00,,,0.00,WUHU216DAVISVP2,2013-06-05 05:32:00,
2013-06-05 00:37:00,59.0,50.8,30.05,NNW,327,0.0,6.0,74,0.00,,,0.00,WUHU216DAVISVP2,2013-06-05 05:37:00,
2013-06-05 00:42:00,58.7,50.9,30.05,WNW,300,4.0,4.0,75,0.00,,,0.00,WUHU216DAVISVP2,2013-06-05 05:42:00,
2013-06-05 00:47:00,58.6,50.4,30.05,NW,318,1.0,4.0,74,0.00,,,0.00,WUHU216DAVISVP2,2013-06-05 05:47:00,
2013-06-05 00:52:00,58.4,50.6,30.05,West,272,0.0,4.0,75,0.00,,,0.00,WUHU216DAVISVP2,2013-06-05 05:52:00,
2013-06-05 00:57:00,58.3,50.2,30.05,West,274,1.0,4.0,74,0.00,,,0.00,WUHU216DAVISVP2,2013-06-05 05:57:00,
2013-06-05 01:02:00,58.2,50.1,30.05,NW,308,1.0,6.0,74,0.00,,,0.00,WUHU216DAVISVP2,2013-06-05 06:02:00,
2013-06-05 01:07:00,58.0,49.9,30.05,NNE,20,2.0,6.0,74,0.00,,,0.00,WUHU216DAVISVP2,2013-06-05 06:07:00,
2013-06-05 01:12:00,57.9,49.8,30.05,NW,304,1.0,6.0,74,0.00,,,0.00,WUHU216DAVISVP2,2013-06-05 06:12:00,
2013-06-05 01:17:00,57.7,49.6,30.06,NW,314,2.0,6.0,74,0.00,,,0.00,WUHU216DAVISVP2,2013-06-05 06:17:00,
2013-06-05 01:22:00,57.6,49.8,30.06,NW,315,0.0,3.0,75,0.00,,,0.00,WUHU216DAVISVP2,2013-06-05 06:22:00,
2013-06-05 01:27:00,57.4,49.6,30.05,NW,315,1.0,3.0,75,0.00,,,0.00,WUHU216DAVISVP2,2013-06-05 06:27:00,
2013-06-05 01:32:00,57.2,49.4,30.05,NW,313,1.0,3.0,75,0.00,,,0.00,WUHU216DAVISVP2,2013-06-05 06:32:00,
2013-06-05 01:37:00,57.0,49.2,30.05,NNW,337,1.0,3.0,75,0.00,,,0.00,WUHU216DAVISVP2,2013-06-05 06:37:00,
2013-06-05 01:42:00,56.9,49.5,30.04,NNW,338,0.0,3.0,76,0.00,,,0.00,WUHU216DAVISVP2,2013-06-05 06:42:00,
2013-06-05 01:47:00,56.7,49.3,30.04,NW,317,1.0,3.0,76,0.00,,,0.00,WUHU216DAVISVP2,2013-06-05 06:47:00,
2013-06-05 01:52:00,56.5,49.1,30.05,NW,307,1.0,3.0,76,0.00,,,0.00,WUHU216DAVISVP2,2013-06-05 06:52:00,
2013-06-05 01:57:00,56.4,49.4,30.05,NW,313,0.0,3.0,77,0.00,,,0.00,WUHU216DAVISVP2,2013-06-05 06:57:00,
2013-06-05 02:02:00,56.2,49.2,30.05,NW,304,0.0,3.0,77,0.00,,,0.00,WUHU216DAVISVP2,2013-06-05 07:02:00,
2013-06-05 02:07:00,56.0,49.0,30.05,NW,304,0.0,3.0,77,0.00,,,0.00,WUHU216DAVISVP2,2013-06-05 07:07:00,
2013-06-05 02:12:00,55.8,49.4,30.05,WNW,303,0.0,3.0,79,0.00,,,0.00,WUHU216DAVISVP2,2013-06-05 07:12:00,
2013-06-05 02:17:00,55.5,49.1,30.05,NW,323,0.0,2.0,79,0.00,,,0.00,WUHU216DAVISVP2,2013-06-05 07:17:00,
2013-06-05 02:22:00,55.3,48.9,30.05,WNW,292,0.0,1.0,79,0.00,,,0.00,WUHU216DAVISVP2,2013-06-05 07:22:00,
2013-06-05 02:27:00,55.2,49.1,30.05,WNW,293,0.0,0.0,80,0.00,,,0.00,WUHU216DAVISVP2,2013-06-05 07:27:00,
2013-06-05 02:32:00,54.9,48.8,30.05,WNW,291,0.0,0.0,80,0.00,,,0.00,WUHU216DAVISVP2,2013-06-05 07:32:00,
2013-06-05 02:37:00,54.6,48.9,30.05,WNW,291,0.0,0.0,81,0.00,,,0.00,WUHU216DAVISVP2,2013-06-05 07:37:00,
2013-06-05 02:42:00,54.3,48.9,30.05,WNW,291,0.0,0.0,82,0.00,,,0.00,WUHU216DAVISVP2,2013-06-05 07:42:00,
2013-06-05 02:47:00,54.1,48.8,30.05,WNW,291,0.0,0.0,82,0.00,,,0.00,WUHU216DAVISVP2,2013-06-05 07:47:00,
2013-06-05 02:52:00,54.0,49.0,30.05,WNW,302,1.0,2.0,83,0.00,,,0.00,WUHU216DAVISVP2,2013-06-05 07:52:00,
2013-06-05 02:57:00,54.6,48.6,30.05,North,4,2.0,5.0,80,0.00,,,0.00,WUHU216DAVISVP2,2013-06-05 07:57:00,
2013-06-05 03:02:00,54.9,48.6,30.05,WNW,297,1.0,5.0,79,0.00,,,0.00,WUHU216DAVISVP2,2013-06-05 08:02:00,
2013-06-05 03:07:00,55.1,48.4,30.04,WNW,295,0.0,5.0,78,0.00,,,0.00,WUHU216DAVISVP2,2013-06-05 08:07:00,
2013-06-05 03:12:00,55.2,48.5,30.05,WSW,243,0.0,5.0,78,0.00,,,0.00,WUHU216DAVISVP2,2013-06-05 08:12:00,
2013-06-05 03:17:00,55.3,48.3,30.04,West,264,3.0,6.0,77,0.00,,,0.00,WUHU216DAVISVP2,2013-06-05 08:17:00,
2013-06-05 03:22:00,55.4,48.0,30.04,NW,304,2.0,6.0,76,0.00,,,0.00,WUHU216DAVISVP2,2013-06-05 08:22:00,
2013-06-05 03:27:00,55.5,48.5,30.04,NW,320,1.0,6.0,77,0.00,,,0.00,WUHU216DAVISVP2,2013-06-05 08:27:00,
2013-06-05 03:32:00,55.4,48.4,30.04,WNW,296,2.0,6.0,77,0.00,,,0.00,WUHU216DAVISVP2,2013-06-05 08:32:00,
2013-06-05 03:37:00,55.4,48.0,30.04,NW,307,1.0,6.0,76,0.00,,,0.00,WUHU216DAVISVP2,2013-06-05 08:37:00,
2013-06-05 03:42:00,55.3,48.2,30.04,West,277,1.0,6.0,77,0.00,,,0.00,WUHU216DAVISVP2,2013-06-05 08:42:00,
2013-06-05 03:47:00,55.3,47.9,30.04,NW,310,3.0,8.0,76,0.00,,,0.00,WUHU216DAVISVP2,2013-06-05 08:47:00,
2013-06-05 03:52:00,55.2,48.1,30.03,NW,310,2.0,8.0,77,0.00,,,0.00,WUHU216DAVISVP2,2013-06-05 08:52:00,
2013-06-05 03:57:00,55.0,48.3,30.03,WNW,301,3.0,8.0,78,0.00,,,0.00,WUHU216DAVISVP2,2013-06-05 08:57:00,
2013-06-05 04:02:00,54.9,47.9,30.03,NW,310,3.0,8.0,77,0.00,,,0.00,WUHU216DAVISVP2,2013-06-05 09:02:00,
2013-06-05 04:07:00,54.8,47.8,30.04,WNW,300,1.0,7.0,77,0.00,,,0.00,WUHU216DAVISVP2,2013-06-05 09:07:00,
2013-06-05 04:12:00,54.7,48.0,30.04,NW,309,0.0,7.0,78,0.00,,,0.00,WUHU216DAVISVP2,2013-06-05 09:12:00,
2013-06-05 04:17:00,54.5,47.8,30.05,NW,307,4.0,7.0,78,0.00,,,0.00,WUHU216DAVISVP2,2013-06-05 09:17:00,
2013-06-05 04:22:00,54.5,47.8,30.05,WNW,300,3.0,7.0,78,0.00,,,0.00,WUHU216DAVISVP2,2013-06-05 09:22:00,
2013-06-05 04:27:00,54.4,47.7,30.05,WNW,292,2.0,8.0,78,0.00,,,0.00,WUHU216DAVISVP2,2013-06-05 09:27:00,
2013-06-05 04:32:00,54.3,47.6,30.05,NW,326,1.0,8.0,78,0.00,,,0.00,WUHU216DAVISVP2,2013-06-05 09:32:00,
2013-06-05 04:37:00,54.2,47.9,30.05,NNW,336,2.0,8.0,79,0.00,,,0.00,WUHU216DAVISVP2,2013-06-05 09:37:00,
2013-06-05 04:42:00,54.0,47.7,30.05,WNW,295,2.0,8.0,79,0.00,,,0.00,WUHU216DAVISVP2,2013-06-05 09:42:00,
2013-06-05 04:47:00,53.9,47.9,30.05,NW,324,2.0,5.0,80,0.00,,,0.00,WUHU216DAVISVP2,2013-06-05 09:47:00,
2013-06-05 04:52:00,53.7,47.7,30.05,NW,309,2.0,5.0,80,0.00,,,0.00,WUHU216DAVISVP2,2013-06-05 09:52:00,
2013-06-05 04:57:00,53.7,47.7,30.05,NW,312,3.0,5.0,80,0.00,,,0.00,WUHU216DAVISVP2,2013-06-05 09:57:00,
2013-06-05 05:02:00,53.7,47.7,30.04,NW,308,2.0,11.0,80,0.00,,,0.00,WUHU216DAVISVP2,2013-06-05 10:02:00,
2013-06-05 05:07:00,53.7,47.7,30.04,WNW,297,3.0,11.0,80,0.00,,,0.00,WUHU216DAVISVP2,2013-06-05 10:07:00,
2013-06-05 05:12:00,53.6,47.6,30.04,NW,305,2.0,11.0,80,0.00,,,0.00,WUHU216DAVISVP2,2013-06-05 10:12:00,
2013-06-05 05:17:00,53.6,47.6,30.04,WNW,297,3.0,8.0,80,0.00,,,0.00,WUHU216DAVISVP2,2013-06-05 10:17:00,
2013-06-05 05:22:00,53.4,47.7,30.04,NW,309,3.0,6.0,81,0.00,,,0.00,WUHU216DAVISVP2,2013-06-05 10:22:00,
2013-06-05 05:27:00,53.3,47.6,30.04,NNW,327,1.0,6.0,81,0.00,,,0.00,WUHU216DAVISVP2,2013-06-05 10:27:00,
2013-06-05 05:32:00,53.2,47.5,30.04,NW,307,1.0,6.0,81,0.00,,,0.00,WUHU216DAVISVP2,2013-06-05 10:32:00,
2013-06-05 05:37:00,53.1,47.4,30.04,NNW,327,3.0,6.0,81,0.00,,,0.00,WUHU216DAVISVP2,2013-06-05 10:37:00,
2013-06-05 05:42:00,53.0,47.7,30.04,West,269,2.0,7.0,82,0.00,,,0.00,WUHU216DAVISVP2,2013-06-05 10:42:00,
2013-06-05 05:47:00,53.0,47.4,30.03,WNW,290,2.0,7.0,81,0.00,,,0.00,WUHU216DAVISVP2,2013-06-05 10:47:00,
2013-06-05 05:52:00,53.0,47.7,30.03,WNW,291,1.0,7.0,82,0.00,,,0.00,WUHU216DAVISVP2,2013-06-05 10:52:00,
2013-06-05 05:57:00,52.9,47.6,30.03,NW,308,3.0,8.0,82,0.00,,,0.00,WUHU216DAVISVP2,2013-06-05 10:57:00,
2013-06-05 06:02:00,52.9,47.6,30.03,NW,305,2.0,8.0,82,0.00,,,0.00,WUHU216DAVISVP2,2013-06-05 11:02:00,
2013-06-05 06:07:00,52.8,47.5,30.04,NW,316,3.0,11.0,82,0.00,,,0.00,WUHU216DAVISVP2,2013-06-05 11:07:00,
2013-06-05 06:12:00,52.7,47.4,30.04,WNW,298,2.0,11.0,82,0.00,,,0.00,WUHU216DAVISVP2,2013-06-05 11:12:00,
2013-06-05 06:17:00,52.6,47.6,30.04,NNW,327,1.0,11.0,83,0.00,,,0.00,WUHU216DAVISVP2,2013-06-05 11:17:00,
2013-06-05 06:22:00,52.6,47.6,30.04,West,264,1.0,11.0,83,0.00,,,0.00,WUHU216DAVISVP2,2013-06-05 11:22:00,
2013-06-05 06:27:00,52.5,47.5,30.04,WNW,283,2.0,8.0,83,0.00,,,0.00,WUHU216DAVISVP2,2013-06-05 11:27:00,
2013-06-05 06:32:00,52.5,47.5,30.04,NW,312,1.0,7.0,83,0.00,,,0.00,WUHU216DAVISVP2,2013-06-05 11:32:00,
2013-06-05 06:37:00,52.5,47.5,30.04,WNW,293,5.0,8.0,83,0.00,,,0.00,WUHU216DAVISVP2,2013-06-05 11:37:00,
2013-06-05 06:42:00,52.6,47.6,30.04,NW,309,3.0,8.0,83,0.00,,,0.00,WUHU216DAVISVP2,2013-06-05 11:42:00,
2013-06-05 06:47:00,52.7,47.7,30.04,WNW,303,1.0,8.0,83,0.00,,,0.00,WUHU216DAVISVP2,2013-06-05 11:47:00,
2013-06-05 06:52:00,52.7,47.4,30.04,West,277,2.0,8.0,82,0.00,,,0.00,WUHU216DAVISVP2,2013-06-05 11:52:00,
2013-06-05 06:57:00,52.7,47.4,30.04,North,349,2.0,6.0,82,0.00,,,0.00,WUHU216DAVISVP2,2013-06-05 11:57:00,
2013-06-05 07:02:00,52.6,47.3,30.04,NW,323,1.0,6.0,82,0.00,,,0.00,WUHU216DAVISVP2,2013-06-05 12:02:00,
2013-06-05 07:07:00,52.6,47.3,30.04,WNW,282,3.0,8.0,82,0.00,,,0.00,WUHU216DAVISVP2,2013-06-05 12:07:00,
2013-06-05 07:12:00,52.6,47.6,30.05,WNW,288,2.0,8.0,83,0.00,,,0.00,WUHU216DAVISVP2,2013-06-05 12:12:00,
2013-06-05 07:17:00,52.6,47.6,30.05,WSW,252,2.0,8.0,83,0.00,,,0.00,WUHU216DAVISVP2,2013-06-05 12:17:00,
2013-06-05 07:22:00,52.7,47.7,30.05,WNW,298,1.0,8.0,83,0.00,,,0.00,WUHU216DAVISVP2,2013-06-05 12:22:00,
2013-06-05 07:27:00,52.6,47.6,30.05,WSW,256,1.0,7.0,83,0.00,,,0.00,WUHU216DAVISVP2,2013-06-05 12:27:00,
2013-06-05 07:32:00,52.7,47.7,30.04,NNW,327,2.0,7.0,83,0.00,,,0.00,WUHU216DAVISVP2,2013-06-05 12:32:00,
2013-06-05 07:37:00,53.0,48.0,30.04,SW,234,1.0,7.0,83,0.00,,,0.00,WUHU216DAVISVP2,2013-06-05 12:37:00,
2013-06-05 07:42:00,53.3,48.3,30.04,NW,311,1.0,7.0,83,0.00,,,0.00,WUHU216DAVISVP2,2013-06-05 12:42:00,
2013-06-05 07:47:00,53.6,48.2,30.04,WNW,289,7.0,7.0,82,0.00,,,0.00,WUHU216DAVISVP2,2013-06-05 12:47:00,
2013-06-05 07:52:00,53.8,48.4,30.03,West,260,3.0,10.0,82,0.00,,,0.00,WUHU216DAVISVP2,2013-06-05 12:52:00,
2013-06-05 07:57:00,54.1,48.4,30.04,NW,307,2.0,10.0,81,0.00,,,0.00,WUHU216DAVISVP2,2013-06-05 12:57:00,
2013-06-05 08:02:00,54.5,48.5,30.04,North,352,2.0,10.0,80,0.00,,,0.00,WUHU216DAVISVP2,2013-06-05 13:02:00,
2013-06-05 08:07:00,54.7,48.6,30.04,NNW,330,2.0,7.0,80,0.00,,,0.00,WUHU216DAVISVP2,2013-06-05 13:07:00,
2013-06-05 08:12:00,54.8,48.4,30.04,NNW,333,3.0,9.0,79,0.00,,,0.00,WUHU216DAVISVP2,2013-06-05 13:12:00,
2013-06-05 08:17:00,55.0,48.3,30.04,NNW,338,3.0,9.0,78,0.00,,,0.00,WUHU216DAVISVP2,2013-06-05 13:17:00,
2013-06-05 08:22:00,55.0,48.3,30.04,NW,304,5.0,9.0,78,0.00,,,0.00,WUHU216DAVISVP2,2013-06-05 13:22:00,
2013-06-05 08:27:00,55.0,48.3,30.04,NNW,347,3.0,9.0,78,0.00,,,0.00,WUHU216DAVISVP2,2013-06-05 13:27:00,
2013-06-05 08:32:00,55.3,48.3,30.04,NW,305,4.0,9.0,77,0.00,,,0.00,WUHU216DAVISVP2,2013-06-05 13:32:00,
2013-06-05 08:37:00,55.6,48.2,30.04,WNW,301,4.0,8.0,76,0.00,,,0.00,WUHU216DAVISVP2,2013-06-05 13:37:00,
2013-06-05 08:42:00,56.0,48.3,30.04,NW,308,4.0,9.0,75,0.00,,,0.00,WUHU216DAVISVP2,2013-06-05 13:42:00,
2013-06-05 08:47:00,56.0,48.3,30.04,NNW,333,3.0,11.0,75,0.00,,,0.00,WUHU216DAVISVP2,2013-06-05 13:47:00,
2013-06-05 08:52:00,56.2,48.1,30.04,NNW,345,4.0,11.0,74,0.00,,,0.00,WUHU216DAVISVP2,2013-06-05 13:52:00,
2013-06-05 08:57:00,56.5,48.8,30.04,ESE,116,1.0,11.0,75,0.00,,,0.00,WUHU216DAVISVP2,2013-06-05 13:57:00,
2013-06-05 09:02:00,56.5,48.4,30.05,NNW,330,4.0,11.0,74,0.00,,,0.00,WUHU216DAVISVP2,2013-06-05 14:02:00,
2013-06-05 09:07:00,56.1,48.0,30.05,WNW,303,7.0,8.0,74,0.00,,,0.00,WUHU216DAVISVP2,2013-06-05 14:07:00,
2013-06-05 09:12:00,56.2,48.5,30.05,SW,233,1.0,8.0,75,0.00,,,0.00,WUHU216DAVISVP2,2013-06-05 14:12:00,
2013-06-05 09:17:00,56.3,48.2,30.05,NW,314,5.0,9.0,74,0.00,,,0.00,WUHU216DAVISVP2,2013-06-05 14:17:00,
2013-06-05 09:22:00,56.0,47.9,30.05,WNW,296,11.0,11.0,74,0.00,,,0.00,WUHU216DAVISVP2,2013-06-05 14:22:00,
2013-06-05 09:27:00,56.1,48.0,30.05,NW,308,3.0,12.0,74,0.00,,,0.00,WUHU216DAVISVP2,2013-06-05 14:27:00,
2013-06-05 09:32:00,56.1,48.0,30.05,North,356,3.0,12.0,74,0.00,,,0.00,WUHU216DAVISVP2,2013-06-05 14:32:00,
2013-06-05 09:37:00,56.2,48.5,30.05,NW,304,2.0,12.0,75,0.00,,,0.00,WUHU216DAVISVP2,2013-06-05 14:37:00,
2013-06-05 09:42:00,56.2,48.5,30.05,WNW,292,3.0,9.0,75,0.00,,,0.00,WUHU216DAVISVP2,2013-06-05 14:42:00,
2013-06-05 09:47:00,56.2,48.1,30.05,NW,305,3.0,9.0,74,0.00,,,0.00,WUHU216DAVISVP2,2013-06-05 14:47:00,
2013-06-05 09:52:00,56.4,48.3,30.04,WNW,295,5.0,9.0,74,0.00,,,0.00,WUHU216DAVISVP2,2013-06-05 14:52:00,
2013-06-05 09:57:00,56.6,48.5,30.05,NNW,334,2.0,9.0,74,0.00,,,0.00,WUHU216DAVISVP2,2013-06-05 14:57:00,
2013-06-05 10:02:00,56.7,48.2,30.05,NW,324,3.0,9.0,73,0.00,,,0.00,WUHU216DAVISVP2,2013-06-05 15:02:00,
2013-06-05 10:07:00,56.8,48.2,30.05,WNW,295,2.0,6.0,73,0.00,,,0.00,WUHU216DAVISVP2,2013-06-05 15:07:00,
2013-06-05 10:12:00,56.7,48.1,30.05,NW,314,3.0,7.0,73,0.00,,,0.00,WUHU216DAVISVP2,2013-06-05 15:12:00,
2013-06-05 10:17:00,56.5,48.3,30.04,NW,307,2.0,7.0,74,0.00,,,0.00,WUHU216DAVISVP2,2013-06-05 15:17:00,
2013-06-05 10:22:00,56.9,48.7,30.04,West,262,4.0,7.0,74,0.00,,,0.00,WUHU216DAVISVP2,2013-06-05 15:22:00,
2013-06-05 10:27:00,57.0,48.4,30.04,West,278,3.0,7.0,73,0.00,,,0.00,WUHU216DAVISVP2,2013-06-05 15:27:00,
2013-06-05 10:32:00,57.1,48.6,30.05,West,273,3.0,8.0,73,0.00,,,0.00,WUHU216DAVISVP2,2013-06-05 15:32:00,
2013-06-05 10:37:00,56.8,48.0,30.04,WNW,302,4.0,9.0,72,0.00,,,0.00,WUHU216DAVISVP2,2013-06-05 15:37:00,
2013-06-05 10:42:00,56.7,47.9,30.05,NW,319,2.0,9.0,72,0.00,,,0.00,WUHU216DAVISVP2,2013-06-05 15:42:00,
2013-06-05 10:47:00,56.5,48.1,30.05,NW,305,2.0,9.0,73,0.00,,,0.00,WUHU216DAVISVP2,2013-06-05 15:47:00,
2013-06-05 10:52:00,56.4,48.3,30.05,North,358,4.0,9.0,74,0.00,,,0.00,WUHU216DAVISVP2,2013-06-05 15:52:00,
2013-06-05 10:57:00,56.6,48.5,30.04,SW,235,2.0,8.0,74,0.00,,,0.00,WUHU216DAVISVP2,2013-06-05 15:57:00,
2013-06-05 11:02:00,56.6,48.5,30.04,West,275,2.0,8.0,74,0.00,,,0.00,WUHU216DAVISVP2,2013-06-05 16:02:00,
2013-06-05 11:07:00,56.6,48.5,30.05,NW,306,4.0,8.0,74,0.00,,,0.00,WUHU216DAVISVP2,2013-06-05 16:07:00,
2013-06-05 11:12:00,56.6,48.9,30.05,NW,322,2.0,11.0,75,0.00,,,0.00,WUHU216DAVISVP2,2013-06-05 16:12:00,
2013-06-05 11:17:00,56.5,48.4,30.05,WNW,293,1.0,11.0,74,0.00,,,0.00,WUHU216DAVISVP2,2013-06-05 16:17:00,
2013-06-05 11:22:00,56.5,48.8,30.05,WNW,297,2.0,11.0,75,0.00,,,0.00,WUHU216DAVISVP2,2013-06-05 16:22:00,
2013-06-05 11:27:00,56.6,48.5,30.05,WNW,299,3.0,11.0,74,0.00,,,0.00,WUHU216DAVISVP2,2013-06-05 16:27:00,
2013-06-05 11:32:00,56.6,48.5,30.05,West,265,2.0,8.0,74,0.00,,,0.00,WUHU216DAVISVP2,2013-06-05 16:32:00,
2013-06-05 11:37:00,56.8,48.7,30.05,West,275,1.0,8.0,74,0.00,,,0.00,WUHU216DAVISVP2,2013-06-05 16:37:00,
2013-06-05 11:42:00,56.8,48.7,30.05,WNW,296,1.0,8.0,74,0.00,,,0.00,WUHU216DAVISVP2,2013-06-05 16:42:00,
2013-06-05 11:47:00,56.9,48.1,30.06,West,281,3.0,8.0,72,0.00,,,0.00,WUHU216DAVISVP2,2013-06-05 16:47:00,
2013-06-05 11:52:00,57.0,48.9,30.06,WSW,256,1.0,6.0,74,0.00,,,0.00,WUHU216DAVISVP2,2013-06-05 16:52:00,
2013-06-05 11:57:00,57.8,48.9,30.05,WSW,248,1.0,6.0,72,0.00,,,0.00,WUHU216DAVISVP2,2013-06-05 16:57:00,
2013-06-05 12:02:00,57.9,48.7,30.05,NW,310,2.0,6.0,71,0.00,,,0.00,WUHU216DAVISVP2,2013-06-05 17:02:00,
2013-06-05 12:07:00,57.8,48.6,30.05,West,259,2.0,5.0,71,0.00,,,0.00,WUHU216DAVISVP2,2013-06-05 17:07:00,
2013-06-05 12:12:00,57.7,48.9,30.05,NW,306,3.0,5.0,72,0.00,,,0.00,WUHU216DAVISVP2,2013-06-05 17:12:00,
2013-06-05 12:17:00,57.7,49.2,30.05,NNE,18,1.0,5.0,73,0.00,,,0.00,WUHU216DAVISVP2,2013-06-05 17:17:00,
2013-06-05 12:22:00,57.8,49.3,30.05,North,352,1.0,5.0,73,0.00,,,0.00,WUHU216DAVISVP2,2013-06-05 17:22:00,
2013-06-05 12:27:00,57.8,49.3,30.05,SW,236,0.0,6.0,73,0.00,,,0.00,WUHU216DAVISVP2,2013-06-05 17:27:00,
2013-06-05 12:32:00,57.9,49.4,30.05,WNW,295,2.0,6.0,73,0.00,,,0.00,WUHU216DAVISVP2,2013-06-05 17:32:00,
2013-06-05 12:37:00,58.0,49.9,30.05,NW,305,1.0,6.0,74,0.00,,,0.00,WUHU216DAVISVP2,2013-06-05 17:37:00,
2013-06-05 12:42:00,58.1,49.6,30.05,WNW,295,2.0,6.0,73,0.00,,,0.00,WUHU216DAVISVP2,2013-06-05 17:42:00,
2013-06-05 12:47:00,57.9,49.4,30.05,WSW,244,3.0,6.0,73,0.00,,,0.00,WUHU216DAVISVP2,2013-06-05 17:47:00,
2013-06-05 12:52:00,58.1,49.6,30.05,NW,323,1.0,6.0,73,0.00,,,0.00,WUHU216DAVISVP2,2013-06-05 17:52:00,
2013-06-05 12:57:00,58.4,49.5,30.05,WNW,301,3.0,7.0,72,0.00,,,0.00,WUHU216DAVISVP2,2013-06-05 17:57:00,
2013-06-05 13:02:00,58.4,49.5,30.05,West,275,2.0,7.0,72,0.00,,,0.00,WUHU216DAVISVP2,2013-06-05 18:02:00,
2013-06-05 13:07:00,58.2,49.3,30.05,NW,304,2.0,7.0,72,0.00,,,0.00,WUHU216DAVISVP2,2013-06-05 18:07:00,
2013-06-05 13:12:00,58.5,50.3,30.05,NW,304,3.0,7.0,74,0.00,,,0.00,WUHU216DAVISVP2,2013-06-05 18:12:00,
2013-06-05 13:17:00,58.4,49.9,30.05,West,278,2.0,6.0,73,0.00,,,0.00,WUHU216DAVISVP2,2013-06-05 18:17:00,
2013-06-05 13:22:00,58.4,50.6,30.05,West,278,2.0,6.0,75,0.00,,,0.00,WUHU216DAVISVP2,2013-06-05 18:22:00,
2013-06-05 13:27:00,58.4,49.8,30.05,NW,315,2.0,6.0,73,0.00,,,0.00,WUHU216DAVISVP2,2013-06-05 18:27:00,
2013-06-05 13:32:00,58.6,50.3,30.05,NW,310,1.0,6.0,74,0.00,,,0.00,WUHU216DAVISVP2,2013-06-05 18:32:00,
2013-06-05 13:37:00,58.9,50.3,30.05,NW,322,2.0,6.0,73,0.00,,,0.00,WUHU216DAVISVP2,2013-06-05 18:37:00,
2013-06-05 13:42:00,59.2,50.5,30.05,WSW,241,2.0,6.0,73,0.00,,,0.00,WUHU216DAVISVP2,2013-06-05 18:42:00,
2013-06-05 13:47:00,59.1,50.1,30.05,NW,309,2.0,6.0,72,0.00,,,0.00,WUHU216DAVISVP2,2013-06-05 18:47:00,
2013-06-05 13:52:00,58.8,50.3,30.04,WNW,298,1.0,6.0,73,0.00,,,0.00,WUHU216DAVISVP2,2013-06-05 18:52:00,
2013-06-05 13:57:00,59.3,51.5,30.04,WNW,286,3.0,6.0,75,0.00,,,0.00,WUHU216DAVISVP2,2013-06-05 18:57:00,
2013-06-05 14:02:00,59.9,50.5,30.04,NW,306,4.0,6.0,71,0.00,,,0.00,WUHU216DAVISVP2,2013-06-05 19:02:00,
2013-06-05 14:07:00,60.3,50.9,30.04,WSW,255,2.0,6.0,71,0.00,,,0.00,WUHU216DAVISVP2,2013-06-05 19:07:00,
2013-06-05 14:12:00,60.7,50.9,30.04,NW,320,0.0,5.0,70,0.00,,,0.00,WUHU216DAVISVP2,2013-06-05 19:12:00,
2013-06-05 14:17:00,60.6,50.4,30.04,North,352,0.0,5.0,69,0.00,,,0.00,WUHU216DAVISVP2,2013-06-05 19:17:00,
2013-06-05 14:22:00,60.8,51.0,30.03,NW,317,1.0,5.0,70,0.00,,,0.00,WUHU216DAVISVP2,2013-06-05 19:22:00,
2013-06-05 14:28:00,60.8,50.6,30.03,NNW,341,1.0,5.0,69,0.00,,,0.00,WUHU216DAVISVP2,2013-06-05 19:28:00,
2013-06-05 14:32:00,60.6,50.4,30.03,West,281,1.0,5.0,69,0.00,,,0.00,WUHU216DAVISVP2,2013-06-05 19:32:00,
2013-06-05 14:37:00,60.9,51.0,30.03,WSW,252,0.0,5.0,70,0.00,,,0.00,WUHU216DAVISVP2,2013-06-05 19:37:00,
2013-06-05 14:42:00,61.0,50.9,30.03,NW,323,1.0,5.0,69,0.00,,,0.00,WUHU216DAVISVP2,2013-06-05 19:42:00,
2013-06-05 14:47:00,61.3,50.8,30.03,NW,309,1.0,4.0,68,0.00,,,0.00,WUHU216DAVISVP2,2013-06-05 19:47:00,
2013-06-05 14:52:00,61.8,51.7,30.02,West,276,1.0,4.0,69,0.00,,,0.00,WUHU216DAVISVP2,2013-06-05 19:52:00,
2013-06-05 14:57:00,62.8,52.2,30.02,West,261,2.0,4.0,68,0.00,,,0.00,WUHU216DAVISVP2,2013-06-05 19:57:00,
2013-06-05 15:02:00,62.6,51.2,30.02,WNW,293,1.0,6.0,66,0.00,,,0.00,WUHU216DAVISVP2,2013-06-05 20:02:00,
2013-06-05 15:07:00,62.4,51.5,30.02,West,267,1.0,6.0,67,0.00,,,0.00,WUHU216DAVISVP2,2013-06-05 20:07:00,
2013-06-05 15:12:00,62.7,51.7,30.02,NW,307,2.0,6.0,67,0.00,,,0.00,WUHU216DAVISVP2,2013-06-05 20:12:00,
2013-06-05 15:17:00,62.4,50.6,30.02,WSW,241,1.0,6.0,65,0.00,,,0.00,WUHU216DAVISVP2,2013-06-05 20:17:00,
2013-06-05 15:22:00,62.7,50.9,30.02,WNW,291,1.0,4.0,65,0.00,,,0.00,WUHU216DAVISVP2,2013-06-05 20:22:00,
2013-06-05 15:27:00,62.8,51.4,30.02,SW,219,1.0,5.0,66,0.00,,,0.00,WUHU216DAVISVP2,2013-06-05 20:27:00,
2013-06-05 15:32:00,62.8,51.4,30.01,WNW,296,2.0,5.0,66,0.00,,,0.00,WUHU216DAVISVP2,2013-06-05 20:32:00,
2013-06-05 15:37:00,62.7,51.3,30.02,West,266,2.0,5.0,66,0.00,,,0.00,WUHU216DAVISVP2,2013-06-05 20:37:00,
2013-06-05 15:42:00,62.6,50.8,30.01,WSW,241,1.0,5.0,65,0.00,,,0.00,WUHU216DAVISVP2,2013-06-05 20:42:00,
2013-06-05 15:47:00,62.6,50.8,30.01,NW,320,1.0,5.0,65,0.00,,,0.00,WUHU216DAVISVP2,2013-06-05 20:47:00,
2013-06-05 15:52:00,62.3,51.4,30.01,WNW,299,4.0,6.0,67,0.00,,,0.00,WUHU216DAVISVP2,2013-06-05 20:52:00,
2013-06-05 15:57:00,62.5,51.5,30.01,West,259,0.0,6.0,67,0.00,,,0.00,WUHU216DAVISVP2,2013-06-05 20:57:00,
2013-06-05 16:02:00,62.7,51.3,30.01,NW,321,2.0,6.0,66,0.00,,,0.00,WUHU216DAVISVP2,2013-06-05 21:02:00,
2013-06-05 16:07:00,62.7,51.7,30.01,WSW,241,1.0,6.0,67,0.00,,,0.00,WUHU216DAVISVP2,2013-06-05 21:07:00,
2013-06-05 16:12:00,63.0,51.6,30.01,SW,236,1.0,4.0,66,0.00,,,0.00,WUHU216DAVISVP2,2013-06-05 21:12:00,
2013-06-05 16:17:00,63.2,51.8,30.01,SSW,200,1.0,4.0,66,0.00,,,0.00,WUHU216DAVISVP2,2013-06-05 21:17:00,
2013-06-05 16:22:00,63.2,51.8,30.01,NNW,336,2.0,4.0,66,0.00,,,0.00,WUHU216DAVISVP2,2013-06-05 21:22:00,
2013-06-05 16:27:00,62.9,51.9,30.01,SSW,209,1.0,4.0,67,0.00,,,0.00,WUHU216DAVISVP2,2013-06-05 21:27:00,
2013-06-05 16:32:00,63.0,51.2,30.01,North,359,3.0,4.0,65,0.00,,,0.00,WUHU216DAVISVP2,2013-06-05 21:32:00,
2013-06-05 16:37:00,62.8,51.4,30.01,NNW,348,1.0,4.0,66,0.00,,,0.00,WUHU216DAVISVP2,2013-06-05 21:37:00,
2013-06-05 16:42:00,63.1,51.7,30.01,West,259,1.0,4.0,66,0.00,,,0.00,WUHU216DAVISVP2,2013-06-05 21:42:00,
2013-06-05 16:47:00,63.3,52.3,30.01,SW,236,0.0,4.0,67,0.00,,,0.00,WUHU216DAVISVP2,2013-06-05 21:47:00,
2013-06-05 16:52:00,63.4,52.0,30.01,WNW,285,1.0,4.0,66,0.00,,,0.00,WUHU216DAVISVP2,2013-06-05 21:52:00,
2013-06-05 16:57:00,63.3,51.5,30.01,NW,313,5.0,5.0,65,0.00,,,0.00,WUHU216DAVISVP2,2013-06-05 21:57:00,
2013-06-05 17:02:00,63.1,51.3,30.01,WNW,299,2.0,5.0,65,0.00,,,0.00,WUHU216DAVISVP2,2013-06-05 22:02:00,
2013-06-05 17:07:00,63.3,52.3,30.01,NW,315,1.0,5.0,67,0.00,,,0.00,WUHU216DAVISVP2,2013-06-05 22:07:00,
2013-06-05 17:12:00,63.4,51.2,30.01,SW,236,2.0,5.0,64,0.00,,,0.00,WUHU216DAVISVP2,2013-06-05 22:12:00,
2013-06-05 17:17:00,63.5,51.7,30.01,West,269,1.0,5.0,65,0.00,,,0.00,WUHU216DAVISVP2,2013-06-05 22:17:00,
2013-06-05 17:22:00,63.3,51.1,30.01,WNW,292,2.0,5.0,64,0.00,,,0.00,WUHU216DAVISVP2,2013-06-05 22:22:00,
2013-06-05 17:27:00,63.3,51.5,30.01,SW,231,2.0,5.0,65,0.00,,,0.00,WUHU216DAVISVP2,2013-06-05 22:27:00,
2013-06-05 17:32:00,63.3,51.5,30.01,WSW,238,1.0,5.0,65,0.00,,,0.00,WUHU216DAVISVP2,2013-06-05 22:32:00,
2013-06-05 17:37:00,63.2,51.4,30.00,NW,313,3.0,5.0,65,0.00,,,0.00,WUHU216DAVISVP2,2013-06-05 22:37:00,
2013-06-05 17:42:00,63.0,50.8,30.00,North,352,2.0,6.0,64,0.00,,,0.00,WUHU216DAVISVP2,2013-06-05 22:42:00,
2013-06-05 17:47:00,62.9,51.1,30.00,SSW,210,1.0,6.0,65,0.00,,,0.00,WUHU216DAVISVP2,2013-06-05 22:47:00,
2013-06-05 17:52:00,63.0,51.6,30.00,NW,316,2.0,6.0,66,0.00,,,0.00,WUHU216DAVISVP2,2013-06-05 22:52:00,
2013-06-05 17:57:00,63.1,51.3,30.00,WNW,299,3.0,6.0,65,0.00,,,0.00,WUHU216DAVISVP2,2013-06-05 22:57:00,
2013-06-05 18:02:00,63.0,51.6,30.00,WNW,290,2.0,5.0,66,0.00,,,0.00,WUHU216DAVISVP2,2013-06-05 23:02:00,
2013-06-05 18:07:00,62.9,51.9,30.00,NW,304,0.0,5.0,67,0.00,,,0.00,WUHU216DAVISVP2,2013-06-05 23:07:00,
2013-06-05 18:12:00,62.9,52.3,30.00,WNW,283,1.0,5.0,68,0.00,,,0.00,WUHU216DAVISVP2,2013-06-05 23:12:00,
2013-06-05 18:17:00,62.9,51.9,30.00,NE,49,3.0,5.0,67,0.00,,,0.00,WUHU216DAVISVP2,2013-06-05 23:17:00,
2013-06-05 18:22:00,62.8,51.8,30.00,WNW,293,3.0,5.0,67,0.00,,,0.00,WUHU216DAVISVP2,2013-06-05 23:22:00,
2013-06-05 18:27:00,62.8,51.8,30.00,WSW,246,1.0,5.0,67,0.00,,,0.00,WUHU216DAVISVP2,2013-06-05 23:27:00,
2013-06-05 18:32:00,62.6,51.6,30.00,West,259,1.0,6.0,67,0.00,,,0.00,WUHU216DAVISVP2,2013-06-05 23:32:00,
2013-06-05 18:37:00,62.6,51.6,30.00,NNW,345,2.0,6.0,67,0.00,,,0.00,WUHU216DAVISVP2,2013-06-05 23:37:00,
2013-06-05 18:42:00,62.5,51.9,30.00,WNW,296,2.0,6.0,68,0.00,,,0.00,WUHU216DAVISVP2,2013-06-05 23:42:00,
2013-06-05 18:47:00,62.5,52.3,30.00,WNW,300,1.0,6.0,69,0.00,,,0.00,WUHU216DAVISVP2,2013-06-05 23:47:00,
2013-06-05 18:52:00,62.6,52.4,30.00,West,262,1.0,5.0,69,0.00,,,0.00,WUHU216DAVISVP2,2013-06-05 23:52:00,
2013-06-05 18:57:00,62.5,52.3,30.00,WNW,295,1.0,5.0,69,0.00,,,0.00,WUHU216DAVISVP2,2013-06-05 23:57:00,
2013-06-05 19:02:00,62.4,52.2,30.00,West,270,1.0,6.0,69,0.00,,,0.00,WUHU216DAVISVP2,2013-06-06 00:02:00,
2013-06-05 19:07:00,62.3,52.5,30.00,WNW,298,1.0,6.0,70,0.00,,,0.00,WUHU216DAVISVP2,2013-06-06 00:07:00,
2013-06-05 19:12:00,62.8,52.9,30.00,NW,306,1.0,6.0,70,0.00,,,0.00,WUHU216DAVISVP2,2013-06-06 00:12:00,
2013-06-05 19:18:00,63.2,52.9,30.00,WSW,248,1.0,6.0,69,0.00,,,0.00,WUHU216DAVISVP2,2013-06-06 00:18:00,
2013-06-05 19:22:00,63.0,52.8,30.00,NW,304,2.0,6.0,69,0.00,,,0.00,WUHU216DAVISVP2,2013-06-06 00:22:00,
2013-06-05 19:27:00,63.1,53.3,30.00,WNW,289,1.0,6.0,70,0.00,,,0.00,WUHU216DAVISVP2,2013-06-06 00:27:00,
2013-06-05 19:32:00,62.9,53.1,30.00,WNW,293,1.0,6.0,70,0.00,,,0.00,WUHU216DAVISVP2,2013-06-06 00:32:00,
2013-06-05 19:37:00,62.4,52.6,30.00,NW,317,1.0,6.0,70,0.00,,,0.00,WUHU216DAVISVP2,2013-06-06 00:37:00,
2013-06-05 19:42:00,62.0,53.0,30.00,WNW,282,0.0,5.0,72,0.00,,,0.00,WUHU216DAVISVP2,2013-06-06 00:42:00,
2013-06-05 19:47:00,61.5,53.3,30.00,WNW,297,1.0,4.0,74,0.00,,,0.00,WUHU216DAVISVP2,2013-06-06 00:47:00,
2013-06-05 19:52:00,61.1,53.2,30.00,West,277,0.0,4.0,75,0.00,,,0.00,WUHU216DAVISVP2,2013-06-06 00:52:00,
2013-06-05 19:57:00,60.8,53.3,30.00,WSW,248,0.0,4.0,76,0.00,,,0.00,WUHU216DAVISVP2,2013-06-06 00:57:00,
2013-06-05 20:02:00,60.5,53.0,30.00,West,260,0.0,4.0,76,0.00,,,0.00,WUHU216DAVISVP2,2013-06-06 01:02:00,
2013-06-05 20:07:00,60.4,53.2,30.00,West,260,0.0,3.0,77,0.00,,,0.00,WUHU216DAVISVP2,2013-06-06 01:07:00,
2013-06-05 20:12:00,60.3,53.5,30.00,West,277,0.0,2.0,78,0.00,,,0.00,WUHU216DAVISVP2,2013-06-06 01:12:00,
2013-06-05 20:17:00,60.3,53.8,30.00,WSW,240,0.0,1.0,79,0.00,,,0.00,WUHU216DAVISVP2,2013-06-06 01:17:00,
2013-06-05 20:22:00,60.2,53.7,30.00,WSW,242,0.0,1.0,79,0.00,,,0.00,WUHU216DAVISVP2,2013-06-06 01:22:00,
2013-06-05 20:27:00,60.2,53.7,30.00,WSW,242,0.0,1.0,79,0.00,,,0.00,WUHU216DAVISVP2,2013-06-06 01:27:00,
2013-06-05 20:32:00,60.1,53.6,30.00,West,264,0.0,1.0,79,0.00,,,0.00,WUHU216DAVISVP2,2013-06-06 01:32:00,
2013-06-05 20:37:00,60.0,53.5,29.99,West,278,0.0,1.0,79,0.00,,,0.00,WUHU216DAVISVP2,2013-06-06 01:37:00,
2013-06-05 20:42:00,59.9,53.4,29.99,West,274,0.0,1.0,79,0.00,,,0.00,WUHU216DAVISVP2,2013-06-06 01:42:00,
2013-06-05 20:47:00,59.9,53.7,30.00,WNW,295,0.0,1.0,80,0.00,,,0.00,WUHU216DAVISVP2,2013-06-06 01:47:00,
2013-06-05 20:53:00,59.8,53.6,29.99,WNW,294,0.0,1.0,80,0.00,,,0.00,WUHU216DAVISVP2,2013-06-06 01:53:00,
2013-06-05 20:58:00,59.7,53.5,30.00,WNW,294,0.0,0.0,80,0.00,,,0.00,WUHU216DAVISVP2,2013-06-06 01:58:00,
2013-06-05 21:03:00,59.6,53.4,30.00,WNW,295,0.0,0.0,80,0.00,,,0.00,WUHU216DAVISVP2,2013-06-06 02:03:00,
2013-06-05 21:08:00,59.5,53.7,30.00,WNW,295,0.0,0.0,81,0.00,,,0.00,WUHU216DAVISVP2,2013-06-06 02:08:00,
2013-06-05 21:13:00,59.4,53.6,30.00,WNW,295,0.0,0.0,81,0.00,,,0.00,WUHU216DAVISVP2,2013-06-06 02:13:00,
2013-06-05 21:18:00,59.2,53.7,30.00,WNW,295,0.0,0.0,82,0.00,,,0.00,WUHU216DAVISVP2,2013-06-06 02:18:00,
2013-06-05 21:23:00,59.1,53.6,30.00,WNW,295,0.0,0.0,82,0.00,,,0.00,WUHU216DAVISVP2,2013-06-06 02:23:00,
2013-06-05 21:28:00,59.0,53.9,30.00,WNW,295,0.0,0.0,83,0.00,,,0.00,WUHU216DAVISVP2,2013-06-06 02:28:00,
2013-06-05 21:33:00,59.0,53.9,30.00,WNW,294,0.0,0.0,83,0.00,,,0.00,WUHU216DAVISVP2,2013-06-06 02:33:00,
2013-06-05 21:38:00,59.0,53.9,30.00,WNW,293,0.0,0.0,83,0.00,,,0.00,WUHU216DAVISVP2,2013-06-06 02:38:00,
2013-06-05 21:43:00,59.0,53.9,30.00,WNW,295,0.0,0.0,83,0.00,,,0.00,WUHU216DAVISVP2,2013-06-06 02:43:00,
2013-06-05 21:48:00,59.0,53.9,30.01,WNW,295,0.0,0.0,83,0.00,,,0.00,WUHU216DAVISVP2,2013-06-06 02:48:00,
2013-06-05 21:53:00,59.0,53.9,30.01,WNW,299,0.0,0.0,83,0.00,,,0.00,WUHU216DAVISVP2,2013-06-06 02:53:00,
2013-06-05 21:58:00,59.1,54.0,30.01,WNW,295,0.0,0.0,83,0.00,,,0.00,WUHU216DAVISVP2,2013-06-06 02:58:00,
2013-06-05 22:03:00,59.1,54.0,30.01,WNW,302,0.0,2.0,83,0.00,,,0.00,WUHU216DAVISVP2,2013-06-06 03:03:00,
2013-06-05 22:08:00,59.2,54.1,30.01,WNW,302,0.0,2.0,83,0.00,,,0.00,WUHU216DAVISVP2,2013-06-06 03:08:00,
2013-06-05 22:13:00,59.3,54.2,30.01,West,276,0.0,2.0,83,0.00,,,0.00,WUHU216DAVISVP2,2013-06-06 03:13:00,
2013-06-05 22:18:00,59.3,54.2,30.01,West,276,0.0,2.0,83,0.00,,,0.00,WUHU216DAVISVP2,2013-06-06 03:18:00,
2013-06-05 22:23:00,59.3,54.5,30.01,West,276,0.0,2.0,84,0.00,,,0.00,WUHU216DAVISVP2,2013-06-06 03:23:00,
2013-06-05 22:28:00,59.2,54.4,30.01,West,276,0.0,2.0,84,0.00,,,0.00,WUHU216DAVISVP2,2013-06-06 03:28:00,
2013-06-05 22:33:00,59.2,54.4,30.01,West,276,0.0,2.0,84,0.00,,,0.00,WUHU216DAVISVP2,2013-06-06 03:33:00,
2013-06-05 22:38:00,59.1,54.3,30.02,West,276,0.0,0.0,84,0.00,,,0.00,WUHU216DAVISVP2,2013-06-06 03:38:00,
2013-06-05 22:43:00,59.1,54.6,30.01,West,276,0.0,0.0,85,0.00,,,0.00,WUHU216DAVISVP2,2013-06-06 03:43:00,
2013-06-05 22:48:00,59.2,54.7,30.02,West,276,0.0,0.0,85,0.00,,,0.00,WUHU216DAVISVP2,2013-06-06 03:48:00,
2013-06-05 22:53:00,59.2,54.7,30.02,West,276,0.0,0.0,85,0.00,,,0.00,WUHU216DAVISVP2,2013-06-06 03:53:00,
2013-06-05 22:58:00,59.1,54.6,30.02,West,276,0.0,0.0,85,0.00,,,0.00,WUHU216DAVISVP2,2013-06-06 03:58:00,
2013-06-05 23:01:00,59.1,54.6,30.02,West,276,0.0,0.0,85,0.00,,,0.00,WUHU216DAVISVP2,2013-06-06 04:01:00,
2013-06-05 23:06:00,59.1,54.6,30.02,West,276,0.0,0.0,85,0.00,,,0.00,WUHU216DAVISVP2,2013-06-06 04:06:00,
2013-06-05 23:11:00,59.1,54.9,30.01,West,276,0.0,0.0,86,0.00,,,0.00,WUHU216DAVISVP2,2013-06-06 04:11:00,
2013-06-05 23:16:00,59.1,54.9,30.02,West,276,0.0,0.0,86,0.00,,,0.00,WUHU216DAVISVP2,2013-06-06 04:16:00,
2013-06-05 23:21:00,59.0,54.8,30.02,West,276,0.0,0.0,86,0.00,,,0.00,WUHU216DAVISVP2,2013-06-06 04:21:00,
2013-06-05 23:26:00,59.0,54.8,30.02,West,276,0.0,0.0,86,0.00,,,0.00,WUHU216DAVISVP2,2013-06-06 04:26:00,
2013-06-05 23:31:00,59.0,54.8,30.02,West,277,0.0,0.0,86,0.00,,,0.00,WUHU216DAVISVP2,2013-06-06 04:31:00,
2013-06-05 23:36:00,59.0,54.8,30.02,West,277,0.0,0.0,86,0.00,,,0.00,WUHU216DAVISVP2,2013-06-06 04:36:00,
2013-06-05 23:41:00,59.0,54.8,30.02,West,277,0.0,0.0,86,0.00,,,0.00,WUHU216DAVISVP2,2013-06-06 04:41:00,
2013-06-05 23:46:00,59.0,54.8,30.02,West,277,0.0,0.0,86,0.00,,,0.00,WUHU216DAVISVP2,2013-06-06 04:46:00,
2013-06-05 23:51:00,59.0,54.8,30.02,West,277,0.0,0.0,86,0.00,,,0.00,WUHU216DAVISVP2,2013-06-06 04:51:00,
2013-06-05 23:56:00,59.0,54.8,30.02,West,281,0.0,0.0,86,0.00,,,0.00,WUHU216DAVISVP2,2013-06-06 04:56:00,